Portada
METAR-TAF:

METAR-TAF

Aeroports :

Uzhhorod, Ucraïna

latitud: 48-38-05N, longitud: 022-15-53E, altitud: 117 m

Observació

L'informe es va fer fa 10 hores i 15 minuts, a les 16:00 UTC
Vent calma
Temperatura 1°C
Humitat 80%
Pressió 1026 hPa
Visibilitat 10 km o més

METAR: UKLU 241600Z 00000MPS 9999 NSC 01/M02 Q1026 R10/190065 NOSIG

Hora: 04:15 (02:15 UTC)

Pronòstic

L'informe es va fer fa 12 hores i 7 minuts, a les 14:08 UTC
Pronòstic vàlid del 24 a les 15 UTC al 24 a les 24 UTC
Vent 6 kt del Sud-Est
Visibilitat 10 km o més
Temporalment
l' 24 a les 15 UTC al 24 a les 21 UTC
Visibilitat: 2100 m
Cel ennuvolat a una alçada de 700 ft
boirina

TAF: UKLU 241408Z 2415/2424 14003MPS 9999 NSC TX04/2415Z TNM03/2424Z TEMPO 2415/2421 2100 BR BKN007

Observacions i pronòstics meteorològics de més de 4000 aeroports (METAR i TAF).

Les estacions disponibles són els punts grocs i vermells al mapa.

Posi el ratolí al punt desitjat per veure el nom de l'estació.

Feu clic per veure les observacions i els pronòstics meteorològics.

Per canviar el mapa: feu clic els botons verds amb una creu de color negre per apropar; al botó verd amb un guió per allunyar la imatge; o en les fletxes verdes per a mapes adjacents.


METAR-TAF: